Time;durP1;ratioP1;P1;durP2;ratioP2;P2;SDS_P1;SDS_P2;PMS_P1;PMS_P2;Temp;Humidity;BMP_temperature;BMP_pressure;BME280_temperature;BME280_humidity;BME280_pressure;Samples;Min_cycle;Max_cycle;Signal;HPM_P1;HPM_P2
2022/12/10 00:00:24;;;;;;;;;;;-1.00;99.90;;;;;;5097805;28;19973;-38
2022/12/10 00:02:49;;;;;;;;;;;-1.00;99.90;;;;;;5113130;28;20002;-41
2022/12/10 00:05:15;;;;;;;;;;;-1.00;99.90;;;;;;5113933;28;19991;-40
2022/12/10 00:07:40;;;;;;;;;;;-0.90;99.90;;;;;;5113711;28;20370;-40
2022/12/10 00:10:06;;;;;;;;;;;-0.90;99.90;;;;;;5112803;28;19916;-40
2022/12/10 00:12:32;;;;;;;;;;;-0.90;99.90;;;;;;5113041;28;19949;-39
2022/12/10 00:14:57;;;;;;;;;;;-0.90;99.90;;;;;;5113473;28;19970;-39
2022/12/10 00:17:23;;;;;;;;;;;-0.90;99.90;;;;;;5112756;28;19907;-40
2022/12/10 00:19:48;;;;;;;;;;;-0.90;99.90;;;;;;5104692;28;20385;-39
2022/12/10 00:22:14;;;;;;;;;;;-0.80;99.90;;;;;;5112814;28;19912;-39
2022/12/10 00:24:39;;;;;;;;;;;-0.80;99.90;;;;;;5112627;28;20271;-39
2022/12/10 00:27:05;;;;;;;;;;;-0.70;99.90;;;;;;5093011;28;19912;-39
2022/12/10 00:29:30;;;;;;;;;;;-0.70;99.90;;;;;;5103912;28;19923;-39
2022/12/10 00:31:56;;;;;;;;;;;-0.70;99.90;;;;;;5113249;28;19912;-39
2022/12/10 00:34:21;;;;;;;;;;;-0.60;99.90;;;;;;5113409;28;20419;-43
2022/12/10 00:36:48;;;;;;;;;;;-0.60;99.90;;;;;;5112469;28;19907;-39
2022/12/10 00:39:15;;;;;;;;;;;-0.50;99.90;;;;;;5113308;28;19923;-38
2022/12/10 00:41:40;;;;;;;;;;;-0.50;99.90;;;;;;5113189;28;19908;-40
2022/12/10 00:44:06;;;;;;;;;;;-0.50;99.90;;;;;;5104279;28;20374;-40
2022/12/10 00:46:31;;;;;;;;;;;-0.50;99.90;;;;;;5092797;28;19916;-41
2022/12/10 00:48:58;;;;;;;;;;;-0.50;99.90;;;;;;5092583;28;20431;-40
2022/12/10 00:51:24;;;;;;;;;;;-0.50;99.90;;;;;;5092115;28;19923;-43
2022/12/10 00:53:50;;;;;;;;;;;-0.50;99.90;;;;;;5092708;28;19908;-41
2022/12/10 00:56:17;;;;;;;;;;;-0.50;99.90;;;;;;5101997;28;19908;-38
2022/12/10 00:58:43;;;;;;;;;;;-0.40;99.90;;;;;;5112218;28;19912;-40
2022/12/10 01:01:08;;;;;;;;;;;-0.40;99.90;;;;;;5113142;28;19908;-39
2022/12/10 01:03:34;;;;;;;;;;;-0.40;99.90;;;;;;5113010;28;20377;-39
2022/12/10 01:06:10;;;;;;;;;;;-0.40;99.90;;;;;;5112531;28;19939;-41
2022/12/10 01:08:36;;;;;;;;;;;-0.30;99.90;;;;;;5117086;28;19916;-40
2022/12/10 01:11:01;;;;;;;;;;;-0.30;99.90;;;;;;5115358;28;19927;-39
2022/12/10 01:13:27;;;;;;;;;;;-0.30;99.90;;;;;;5116328;28;19908;-39
2022/12/10 01:15:52;;;;;;;;;;;-0.20;99.90;;;;;;5117319;28;20382;-41
2022/12/10 01:18:18;;;;;;;;;;;-0.20;99.90;;;;;;5117028;28;19918;-39
2022/12/10 01:20:43;;;;;;;;;;;-0.20;99.90;;;;;;5116254;28;19908;-42
2022/12/10 01:23:09;;;;;;;;;;;-0.20;99.90;;;;;;5114649;28;19930;-40
2022/12/10 01:25:34;;;;;;;;;;;-0.20;99.90;;;;;;5096034;28;19909;-39
2022/12/10 01:27:59;;;;;;;;;;;-0.20;99.90;;;;;;5096183;28;19915;-39
2022/12/10 01:30:25;;;;;;;;;;;-0.20;99.90;;;;;;5096341;28;19962;-43
2022/12/10 01:32:50;;;;;;;;;;;-0.20;99.90;;;;;;5095461;28;20283;-39
2022/12/10 01:35:16;;;;;;;;;;;-0.20;99.90;;;;;;5096226;28;19912;-39
2022/12/10 01:37:41;;;;;;;;;;;-0.30;99.90;;;;;;5096103;28;19908;-41
2022/12/10 01:40:07;;;;;;;;;;;-0.30;99.90;;;;;;5095818;28;19912;-38
2022/12/10 01:42:33;;;;;;;;;;;-0.30;99.90;;;;;;5116402;28;19908;-40
2022/12/10 01:45:00;;;;;;;;;;;-0.30;99.90;;;;;;5116448;28;19916;-40
2022/12/10 01:47:26;;;;;;;;;;;-0.40;99.90;;;;;;5115317;28;19999;-39
2022/12/10 01:49:51;;;;;;;;;;;-0.50;99.90;;;;;;5116230;28;20045;-40
2022/12/10 01:52:17;;;;;;;;;;;-0.50;99.90;;;;;;5116455;28;19998;-39
2022/12/10 01:54:44;;;;;;;;;;;-0.50;99.90;;;;;;5115453;28;20327;-40
2022/12/10 01:57:28;;;;;;;;;;;-0.60;99.90;;;;;;5116338;28;19907;-39
2022/12/10 01:59:56;;;;;;;;;;;-0.60;99.90;;;;;;5116146;28;19907;-39
2022/12/10 02:02:29;;;;;;;;;;;-0.60;99.90;;;;;;5115389;28;19908;-39
2022/12/10 02:05:09;;;;;;;;;;;-0.70;99.90;;;;;;5110364;28;20386;-39
2022/12/10 02:07:37;;;;;;;;;;;-0.80;99.90;;;;;;5095697;28;19930;-40
2022/12/10 02:10:06;;;;;;;;;;;-0.80;99.90;;;;;;5094319;28;19964;-39
2022/12/10 02:12:34;;;;;;;;;;;-0.80;99.90;;;;;;5112382;28;20438;-41
2022/12/10 02:15:20;;;;;;;;;;;-0.90;99.90;;;;;;5104907;28;19927;-40
2022/12/10 02:17:51;;;;;;;;;;;-0.90;99.90;;;;;;5093215;28;20287;-40
2022/12/10 02:20:30;;;;;;;;;;;-1.00;99.90;;;;;;5094397;28;19991;-39
2022/12/10 02:22:56;;;;;;;;;;;-1.00;99.90;;;;;;5093363;28;19908;-39
2022/12/10 02:25:24;;;;;;;;;;;-1.00;99.90;;;;;;5094002;28;20007;-39
2022/12/10 02:27:55;;;;;;;;;;;-1.00;99.90;;;;;;5094021;28;20010;-42
2022/12/10 02:30:21;;;;;;;;;;;-1.00;99.90;;;;;;5093202;28;20283;-40
2022/12/10 02:32:48;;;;;;;;;;;-1.10;99.90;;;;;;5094023;28;19944;-39
2022/12/10 02:35:16;;;;;;;;;;;-1.10;99.90;;;;;;5094131;28;19978;-41
2022/12/10 02:37:47;;;;;;;;;;;-1.10;99.90;;;;;;5093164;28;19908;-40
2022/12/10 02:40:16;;;;;;;;;;;-1.10;99.90;;;;;;5094980;28;19912;-39
2022/12/10 02:42:43;;;;;;;;;;;-1.10;99.90;;;;;;5093891;28;19908;-40
2022/12/10 02:45:09;;;;;;;;;;;-1.10;99.90;;;;;;5092975;28;19962;-40
2022/12/10 02:47:36;;;;;;;;;;;-1.20;99.90;;;;;;5093847;28;19961;-39
2022/12/10 02:50:02;;;;;;;;;;;-1.20;99.90;;;;;;5092676;28;19962;-41
2022/12/10 02:52:27;;;;;;;;;;;-1.20;99.90;;;;;;5093822;28;20317;-43
2022/12/10 02:54:53;;;;;;;;;;;-1.20;99.90;;;;;;5093697;28;19908;-39
2022/12/10 02:57:30;;;;;;;;;;;-1.20;99.90;;;;;;5093115;28;19919;-39
2022/12/10 03:00:05;;;;;;;;;;;-1.30;99.90;;;;;;5093514;28;19908;-38
2022/12/10 03:02:38;;;;;;;;;;;-1.30;99.90;;;;;;5093649;28;19908;-39
2022/12/10 03:05:24;;;;;;;;;;;-1.30;99.90;;;;;;5092823;28;19961;-39
2022/12/10 03:07:49;;;;;;;;;;;-1.30;99.90;;;;;;5078721;28;19915;-39
2022/12/10 03:10:18;;;;;;;;;;;-1.30;99.90;;;;;;5098709;28;19920;-39
2022/12/10 03:12:52;;;;;;;;;;;-1.30;99.90;;;;;;5049746;27;1787772;-39
2022/12/10 03:15:18;;;;;;;;;;;-1.30;99.90;;;;;;5094400;28;20371;-39
2022/12/10 03:17:45;;;;;;;;;;;-1.30;99.90;;;;;;5094086;28;19908;-42
2022/12/10 03:20:12;;;;;;;;;;;-1.30;99.90;;;;;;5093788;28;19962;-40
2022/12/10 03:22:39;;;;;;;;;;;-1.40;99.90;;;;;;5094151;28;19914;-39
2022/12/10 03:25:05;;;;;;;;;;;-1.50;99.90;;;;;;5093354;28;19908;-42
2022/12/10 03:27:31;;;;;;;;;;;-1.50;99.90;;;;;;5094407;28;19912;-39
2022/12/10 03:29:58;;;;;;;;;;;-1.50;99.90;;;;;;5093177;28;19960;-39
2022/12/10 03:32:25;;;;;;;;;;;-1.60;99.90;;;;;;5093387;28;19912;-40
2022/12/10 03:34:52;;;;;;;;;;;-1.60;99.90;;;;;;5093939;28;20056;-40
2022/12/10 03:37:18;;;;;;;;;;;-1.50;99.90;;;;;;5093924;28;19908;-41
2022/12/10 03:39:44;;;;;;;;;;;-1.60;99.90;;;;;;5093652;28;19909;-39
2022/12/10 03:42:09;;;;;;;;;;;-1.60;99.90;;;;;;5113734;28;19918;-41
2022/12/10 03:44:37;;;;;;;;;;;-1.60;99.90;;;;;;5114233;28;19933;-39
2022/12/10 03:47:03;;;;;;;;;;;-1.60;99.90;;;;;;5113313;28;19977;-39
2022/12/10 03:49:28;;;;;;;;;;;-1.60;99.90;;;;;;5113860;28;19955;-39
2022/12/10 03:51:54;;;;;;;;;;;-1.70;99.90;;;;;;5113964;28;19915;-39
2022/12/10 03:54:19;;;;;;;;;;;-1.60;99.90;;;;;;5113239;28;19908;-40
2022/12/10 03:56:45;;;;;;;;;;;-1.70;99.90;;;;;;5113904;28;19908;-40
2022/12/10 03:59:11;;;;;;;;;;;-1.70;99.90;;;;;;5113975;28;20433;-39
2022/12/10 04:01:36;;;;;;;;;;;-1.70;99.90;;;;;;5094017;28;19908;-41
2022/12/10 04:04:05;;;;;;;;;;;-1.70;99.90;;;;;;5093295;28;19919;-41
2022/12/10 04:06:31;;;;;;;;;;;-1.80;99.90;;;;;;5093005;28;19974;-39
2022/12/10 04:08:56;;;;;;;;;;;-1.80;99.90;;;;;;5092674;28;20395;-40
2022/12/10 04:11:22;;;;;;;;;;;-1.80;99.90;;;;;;5093090;28;20405;-40
2022/12/10 04:16:33;;;;;;;;;;;-1.80;99.90;;;;;;5092762;28;19934;-39
2022/12/10 04:19:09;;;;;;;;;;;-1.80;99.90;;;;;;5093056;28;19916;-39
2022/12/10 04:27:11;;;;;;;;;;;-1.70;99.90;;;;;;5113723;28;19988;-39
2022/12/10 04:29:37;;;;;;;;;;;-1.80;99.90;;;;;;5112572;28;19915;-40
2022/12/10 04:32:02;;;;;;;;;;;-1.80;99.90;;;;;;5113269;28;20293;-39
2022/12/10 04:34:28;;;;;;;;;;;-1.80;99.90;;;;;;5113499;28;19912;-39
2022/12/10 04:36:54;;;;;;;;;;;-1.90;99.90;;;;;;5112461;28;19908;-39
2022/12/10 04:39:19;;;;;;;;;;;-1.90;99.90;;;;;;5113313;28;19908;-42
2022/12/10 04:41:46;;;;;;;;;;;-1.90;99.90;;;;;;5099435;28;19923;-40
2022/12/10 04:44:12;;;;;;;;;;;-1.90;99.90;;;;;;5092087;28;20371;-41
2022/12/10 04:46:37;;;;;;;;;;;-1.90;99.90;;;;;;5092870;28;19915;-43
2022/12/10 04:49:03;;;;;;;;;;;-1.90;99.90;;;;;;5092525;28;20435;-39
2022/12/10 04:51:29;;;;;;;;;;;-1.90;99.90;;;;;;5103452;28;20282;-39
2022/12/10 04:53:55;;;;;;;;;;;-1.90;99.90;;;;;;5113074;28;19911;-39
2022/12/10 04:56:20;;;;;;;;;;;-1.90;99.90;;;;;;5113071;28;19908;-39
2022/12/10 04:58:46;;;;;;;;;;;-1.90;99.90;;;;;;5112507;28;20255;-40
2022/12/10 05:01:12;;;;;;;;;;;-1.90;99.90;;;;;;5113179;28;19961;-39
2022/12/10 05:03:38;;;;;;;;;;;-1.90;99.90;;;;;;5112340;28;19908;-41
2022/12/10 05:06:08;;;;;;;;;;;-1.90;99.90;;;;;;5113042;28;19914;-41
2022/12/10 05:08:34;;;;;;;;;;;-1.90;99.90;;;;;;5112970;28;19916;-39
2022/12/10 05:11:07;;;;;;;;;;;-1.90;99.90;;;;;;5111850;28;19936;-39
2022/12/10 05:13:33;;;;;;;;;;;-2.00;99.90;;;;;;5113039;28;19946;-39
2022/12/10 05:16:01;;;;;;;;;;;-2.00;99.90;;;;;;5112841;28;19955;-40
2022/12/10 05:18:26;;;;;;;;;;;-2.00;99.90;;;;;;5112136;28;20261;-39
2022/12/10 05:20:52;;;;;;;;;;;-2.00;99.90;;;;;;5103541;28;19965;-41
2022/12/10 05:23:29;;;;;;;;;;;-2.00;99.90;;;;;;5092508;28;19998;-41
2022/12/10 05:26:05;;;;;;;;;;;-2.00;99.90;;;;;;5091745;28;19987;-39
2022/12/10 05:28:33;;;;;;;;;;;-2.00;99.90;;;;;;5092254;28;20302;-40
2022/12/10 05:30:58;;;;;;;;;;;-2.00;99.90;;;;;;5092204;28;19918;-40
2022/12/10 05:33:24;;;;;;;;;;;-2.00;99.90;;;;;;5091685;28;19998;-39
2022/12/10 05:35:57;;;;;;;;;;;-2.00;99.90;;;;;;5095840;28;19912;-41
2022/12/10 05:38:23;;;;;;;;;;;-2.00;99.90;;;;;;5112683;28;20011;-39
2022/12/10 05:40:49;;;;;;;;;;;-2.10;99.90;;;;;;5111736;28;20002;-39
2022/12/10 05:43:14;;;;;;;;;;;-2.10;99.90;;;;;;5112678;28;19915;-39
2022/12/10 05:45:40;;;;;;;;;;;-2.10;99.90;;;;;;5112541;28;19908;-40
2022/12/10 05:48:06;;;;;;;;;;;-2.10;99.90;;;;;;5111945;28;20367;-41
2022/12/10 05:50:32;;;;;;;;;;;-2.10;99.90;;;;;;5111505;28;20302;-40
2022/12/10 05:52:58;;;;;;;;;;;-2.10;99.90;;;;;;5113416;28;19908;-41
2022/12/10 05:55:23;;;;;;;;;;;-2.10;99.90;;;;;;5116397;28;19915;-40
2022/12/10 05:57:49;;;;;;;;;;;-2.10;99.90;;;;;;5114386;28;20469;-39
2022/12/10 06:00:14;;;;;;;;;;;-2.10;99.90;;;;;;5094981;28;19961;-39
2022/12/10 06:02:40;;;;;;;;;;;-2.20;99.90;;;;;;5095481;28;19914;-39
2022/12/10 06:05:05;;;;;;;;;;;-2.20;99.90;;;;;;5095458;28;20318;-42
2022/12/10 06:07:31;;;;;;;;;;;-2.20;99.90;;;;;;5094838;28;19908;-40
2022/12/10 06:09:56;;;;;;;;;;;-2.20;99.90;;;;;;5095420;28;20294;-39
2022/12/10 06:12:22;;;;;;;;;;;-2.20;99.90;;;;;;5095387;28;19981;-40
2022/12/10 06:14:47;;;;;;;;;;;-2.20;99.90;;;;;;5112066;28;20342;-39
2022/12/10 06:17:13;;;;;;;;;;;-2.20;99.90;;;;;;5115746;28;19908;-40
2022/12/10 06:19:38;;;;;;;;;;;-2.20;99.90;;;;;;5115348;28;19918;-39
2022/12/10 06:22:04;;;;;;;;;;;-2.20;99.90;;;;;;5094265;28;19918;-39
2022/12/10 06:24:29;;;;;;;;;;;-2.20;99.90;;;;;;5095160;28;19916;-39
2022/12/10 06:26:55;;;;;;;;;;;-2.20;99.90;;;;;;5095009;28;19947;-40
2022/12/10 06:29:20;;;;;;;;;;;-2.20;99.90;;;;;;5093681;28;19916;-41
2022/12/10 06:31:46;;;;;;;;;;;-2.20;99.90;;;;;;5094296;28;20375;-41
2022/12/10 06:34:11;;;;;;;;;;;-2.20;99.90;;;;;;5094432;28;19908;-42
2022/12/10 06:36:37;;;;;;;;;;;-2.20;99.90;;;;;;5093264;28;19961;-40
2022/12/10 06:39:03;;;;;;;;;;;-2.20;99.90;;;;;;5094088;28;20275;-39
2022/12/10 06:41:28;;;;;;;;;;;-2.20;99.90;;;;;;5094331;28;19912;-39
2022/12/10 06:43:58;;;;;;;;;;;-2.20;99.90;;;;;;5112663;28;20389;-41
2022/12/10 06:46:24;;;;;;;;;;;-2.30;99.90;;;;;;5114287;28;20314;-40
2022/12/10 06:48:49;;;;;;;;;;;-2.30;99.90;;;;;;5114624;28;19923;-41
2022/12/10 06:51:17;;;;;;;;;;;-2.30;99.90;;;;;;5095029;28;19908;-41
2022/12/10 06:53:42;;;;;;;;;;;-2.30;99.90;;;;;;5094655;28;19912;-41
2022/12/10 06:56:12;;;;;;;;;;;-2.30;99.90;;;;;;5093778;28;19962;-40
2022/12/10 06:58:40;;;;;;;;;;;-2.40;99.90;;;;;;5094851;28;19969;-40
2022/12/10 07:01:06;;;;;;;;;;;-2.40;99.90;;;;;;5094401;28;19912;-43
2022/12/10 07:03:32;;;;;;;;;;;-2.40;99.90;;;;;;5111459;28;19911;-39
2022/12/10 07:05:58;;;;;;;;;;;-2.40;99.90;;;;;;5109262;28;19939;-42
2022/12/10 07:08:24;;;;;;;;;;;-2.40;99.90;;;;;;5103085;28;19912;-40
2022/12/10 07:10:49;;;;;;;;;;;-2.40;99.90;;;;;;5107146;28;19927;-39
2022/12/10 07:13:15;;;;;;;;;;;-2.40;99.90;;;;;;5107327;28;19920;-39
2022/12/10 07:15:40;;;;;;;;;;;-2.40;99.90;;;;;;5113932;28;19908;-39
2022/12/10 07:18:06;;;;;;;;;;;-2.40;99.90;;;;;;5113232;28;19907;-41
2022/12/10 07:20:31;;;;;;;;;;;-2.30;99.90;;;;;;5114043;28;19919;-40
2022/12/10 07:22:56;;;;;;;;;;;-2.30;99.90;;;;;;5111069;28;20424;-41
2022/12/10 07:25:22;;;;;;;;;;;-2.30;99.90;;;;;;5113571;28;19914;-40
2022/12/10 07:27:47;;;;;;;;;;;-2.40;99.90;;;;;;5114015;28;20260;-41
2022/12/10 07:30:13;;;;;;;;;;;-2.30;99.90;;;;;;5114356;28;19916;-40
2022/12/10 07:32:38;;;;;;;;;;;-2.30;99.90;;;;;;5112585;28;20038;-41
2022/12/10 07:35:04;;;;;;;;;;;-2.30;99.90;;;;;;5114141;28;19998;-40
2022/12/10 07:37:30;;;;;;;;;;;-2.30;99.90;;;;;;5112016;28;19915;-41
2022/12/10 07:39:55;;;;;;;;;;;-2.30;99.90;;;;;;5104464;28;19912;-40
2022/12/10 07:42:21;;;;;;;;;;;-2.30;99.90;;;;;;5112579;28;19991;-39
2022/12/10 07:44:48;;;;;;;;;;;-2.30;99.90;;;;;;5111872;28;19970;-40
2022/12/10 07:47:13;;;;;;;;;;;-2.30;99.90;;;;;;5103688;28;19916;-40
2022/12/10 07:49:38;;;;;;;;;;;-2.30;99.90;;;;;;5106507;28;20277;-40
2022/12/10 07:52:04;;;;;;;;;;;-2.30;99.90;;;;;;5106057;27;19974;-40
2022/12/10 07:54:29;;;;;;;;;;;-2.30;99.90;;;;;;5107347;28;19911;-39
2022/12/10 07:56:55;;;;;;;;;;;-2.20;99.90;;;;;;5112129;28;20424;-39
2022/12/10 07:59:20;;;;;;;;;;;-2.20;99.90;;;;;;5108355;28;20323;-40
2022/12/10 08:01:46;;;;;;;;;;;-2.20;99.90;;;;;;5112846;28;19915;-41
2022/12/10 08:04:11;;;;;;;;;;;-2.20;99.90;;;;;;5114446;27;19918;-39
2022/12/10 08:06:37;;;;;;;;;;;-2.20;99.90;;;;;;5110844;28;19927;-41
2022/12/10 08:09:02;;;;;;;;;;;-2.20;99.90;;;;;;5113195;28;19915;-41
2022/12/10 08:11:28;;;;;;;;;;;-2.20;99.90;;;;;;5113267;28;19920;-40
2022/12/10 08:13:54;;;;;;;;;;;-2.20;99.90;;;;;;5112697;28;19995;-39
2022/12/10 08:16:22;;;;;;;;;;;-2.20;99.90;;;;;;5094835;28;19912;-40
2022/12/10 08:18:48;;;;;;;;;;;-2.10;99.90;;;;;;5113323;28;19962;-39
2022/12/10 08:21:18;;;;;;;;;;;-2.10;99.90;;;;;;5112345;28;20231;-44
2022/12/10 08:23:44;;;;;;;;;;;-2.10;99.90;;;;;;5113193;28;19914;-39
2022/12/10 08:26:12;;;;;;;;;;;-2.00;99.90;;;;;;5112903;28;19908;-40
2022/12/10 08:28:37;;;;;;;;;;;-2.00;99.90;;;;;;5111235;28;19931;-40
2022/12/10 08:31:03;;;;;;;;;;;-1.90;99.90;;;;;;5111791;28;19907;-40
2022/12/10 08:33:28;;;;;;;;;;;-1.90;99.90;;;;;;5110736;28;20370;-39
2022/12/10 08:35:59;;;;;;;;;;;-1.90;99.90;;;;;;5111349;28;19923;-39
2022/12/10 08:38:24;;;;;;;;;;;-1.90;99.90;;;;;;5109754;28;19990;-40
2022/12/10 08:40:50;;;;;;;;;;;-1.90;99.90;;;;;;5111522;28;20026;-43
2022/12/10 08:43:15;;;;;;;;;;;-1.80;99.90;;;;;;5110779;28;19930;-39
2022/12/10 08:45:41;;;;;;;;;;;-1.80;99.90;;;;;;5111643;28;20278;-41
2022/12/10 08:48:06;;;;;;;;;;;-1.80;99.90;;;;;;5113171;28;19912;-40
2022/12/10 08:50:32;;;;;;;;;;;-1.80;99.90;;;;;;5111503;28;19923;-38
2022/12/10 08:52:57;;;;;;;;;;;-1.70;99.90;;;;;;5100899;28;20516;-39
2022/12/10 08:55:23;;;;;;;;;;;-1.70;99.90;;;;;;5105030;28;19912;-40
2022/12/10 08:57:48;;;;;;;;;;;-1.70;99.90;;;;;;5101715;28;19920;-40
2022/12/10 09:00:14;;;;;;;;;;;-1.60;99.90;;;;;;5107039;28;19922;-39
2022/12/10 09:02:40;;;;;;;;;;;-1.60;99.90;;;;;;5102292;28;19912;-41
2022/12/10 09:05:06;;;;;;;;;;;-1.50;99.90;;;;;;5091142;28;19912;-39
2022/12/10 09:07:31;;;;;;;;;;;-1.50;99.90;;;;;;5107268;28;20320;-39
2022/12/10 09:09:57;;;;;;;;;;;-1.40;99.90;;;;;;5111256;28;19920;-39
2022/12/10 09:12:23;;;;;;;;;;;-1.30;99.90;;;;;;5111965;28;19923;-39
2022/12/10 09:14:48;;;;;;;;;;;-1.20;99.90;;;;;;5111746;28;20378;-41
2022/12/10 09:17:14;;;;;;;;;;;-1.20;99.90;;;;;;5111432;28;19908;-39
2022/12/10 09:19:39;;;;;;;;;;;-1.10;99.90;;;;;;5112121;28;19911;-41
2022/12/10 09:22:05;;;;;;;;;;;-1.10;99.90;;;;;;5111881;28;20290;-39
2022/12/10 09:24:30;;;;;;;;;;;-1.10;99.90;;;;;;5109236;28;20359;-41
2022/12/10 09:26:56;;;;;;;;;;;-1.00;99.90;;;;;;5110733;28;20006;-39
2022/12/10 09:29:21;;;;;;;;;;;-0.90;99.90;;;;;;5115958;28;20378;-40
2022/12/10 09:31:50;;;;;;;;;;;-0.90;99.90;;;;;;5113636;28;19908;-41
2022/12/10 09:34:16;;;;;;;;;;;-0.80;99.90;;;;;;5106251;28;19918;-39
2022/12/10 09:36:41;;;;;;;;;;;-0.70;99.90;;;;;;5113589;27;19912;-41
2022/12/10 09:39:07;;;;;;;;;;;-0.70;99.90;;;;;;5118557;27;19912;-39
2022/12/10 09:41:35;;;;;;;;;;;-0.60;99.90;;;;;;5118137;27;20646;-39
2022/12/10 09:44:15;;;;;;;;;;;-0.50;99.90;;;;;;5121891;27;19911;-39
2022/12/10 09:46:54;;;;;;;;;;;-0.40;99.90;;;;;;5120531;27;19915;-41
2022/12/10 09:49:33;;;;;;;;;;;-0.20;99.90;;;;;;5125440;27;20019;-41
2022/12/10 09:52:04;;;;;;;;;;;-0.10;99.90;;;;;;5136146;27;19969;-39
2022/12/10 09:54:32;;;;;;;;;;;0.00;99.90;;;;;;5136872;27;19914;-41
2022/12/10 09:56:58;;;;;;;;;;;0.10;99.90;;;;;;5136854;27;20070;-42
2022/12/10 09:59:24;;;;;;;;;;;0.10;99.90;;;;;;5135964;27;19915;-39
2022/12/10 10:01:57;;;;;;;;;;;0.20;99.90;;;;;;5112583;27;19915;-41
2022/12/10 10:04:23;;;;;;;;;;;0.20;99.90;;;;;;5136555;27;20370;-40
2022/12/10 10:06:48;;;;;;;;;;;0.20;99.90;;;;;;5127677;27;19923;-39
2022/12/10 10:09:15;;;;;;;;;;;0.20;99.90;;;;;;5101241;28;19923;-39
2022/12/10 10:11:41;;;;;;;;;;;0.20;99.90;;;;;;5095474;28;19920;-39
2022/12/10 10:14:14;;;;;;;;;;;0.10;99.90;;;;;;5094798;28;19950;-39
2022/12/10 10:16:45;;;;;;;;;;;0.10;99.90;;;;;;5095606;28;20395;-39
2022/12/10 10:19:27;;;;;;;;;;;0.10;99.90;;;;;;5095495;28;20343;-40
2022/12/10 10:21:53;;;;;;;;;;;0.20;99.90;;;;;;5094536;28;19934;-42
2022/12/10 10:24:21;;;;;;;;;;;0.20;99.90;;;;;;5095555;28;19912;-40
2022/12/10 10:26:47;;;;;;;;;;;0.20;99.90;;;;;;5102307;28;19919;-41
2022/12/10 10:29:15;;;;;;;;;;;0.20;99.90;;;;;;5102704;28;19924;-40
2022/12/10 10:31:42;;;;;;;;;;;0.20;99.90;;;;;;5095656;28;19974;-39
2022/12/10 10:34:18;;;;;;;;;;;0.20;99.90;;;;;;5094298;28;20311;-40
2022/12/10 10:36:44;;;;;;;;;;;0.30;99.90;;;;;;5095152;28;19961;-39
2022/12/10 10:39:11;;;;;;;;;;;0.30;99.90;;;;;;5094866;28;19931;-41
2022/12/10 10:41:39;;;;;;;;;;;0.30;99.90;;;;;;5095367;28;19912;-40
2022/12/10 10:44:12;;;;;;;;;;;0.30;99.90;;;;;;5113893;28;20311;-41
2022/12/10 10:46:38;;;;;;;;;;;0.30;99.90;;;;;;5115545;28;19915;-42
2022/12/10 10:49:19;;;;;;;;;;;0.30;99.90;;;;;;5114416;28;20425;-41
2022/12/10 10:51:47;;;;;;;;;;;0.30;99.90;;;;;;5115331;28;19942;-40
2022/12/10 10:54:33;;;;;;;;;;;0.30;99.90;;;;;;5115257;28;19908;-39
2022/12/10 10:57:02;;;;;;;;;;;0.30;99.90;;;;;;5113815;28;19962;-39
2022/12/10 10:59:30;;;;;;;;;;;0.30;99.90;;;;;;5115206;28;19953;-40
2022/12/10 11:01:59;;;;;;;;;;;0.20;99.90;;;;;;5112990;28;19911;-40
2022/12/10 11:04:30;;;;;;;;;;;0.30;99.90;;;;;;5114496;28;19908;-40
2022/12/10 11:06:59;;;;;;;;;;;0.30;99.90;;;;;;5114947;28;19998;-42
2022/12/10 11:09:27;;;;;;;;;;;0.30;99.90;;;;;;5114136;28;19920;-40
2022/12/10 11:12:18;;;;;;;;;;;0.30;99.90;;;;;;5114697;28;19924;-39
2022/12/10 11:14:45;;;;;;;;;;;0.30;99.90;;;;;;5115112;28;19908;-40
2022/12/10 11:17:11;;;;;;;;;;;0.30;99.90;;;;;;5114089;28;19908;-39
2022/12/10 11:19:55;;;;;;;;;;;0.20;99.90;;;;;;5114701;28;19908;-39
2022/12/10 11:22:22;;;;;;;;;;;0.20;99.90;;;;;;5114980;28;19968;-41
2022/12/10 11:24:48;;;;;;;;;;;0.20;99.90;;;;;;5114111;28;19991;-41
2022/12/10 11:27:22;;;;;;;;;;;0.10;99.90;;;;;;5112502;28;20282;-40
2022/12/10 11:29:47;;;;;;;;;;;0.10;99.90;;;;;;5114565;28;20018;-40
2022/12/10 11:32:24;;;;;;;;;;;0.10;99.90;;;;;;5113676;28;19954;-41
2022/12/10 11:35:02;;;;;;;;;;;0.00;99.90;;;;;;5114165;28;19923;-42
2022/12/10 11:37:33;;;;;;;;;;;0.10;99.90;;;;;;5113631;28;19915;-39
2022/12/10 11:40:10;;;;;;;;;;;0.10;99.90;;;;;;5114364;28;19908;-40
2022/12/10 11:42:36;;;;;;;;;;;0.10;99.90;;;;;;5114216;28;20361;-40
2022/12/10 11:45:07;;;;;;;;;;;0.20;99.90;;;;;;5096349;28;19920;-38
2022/12/10 11:47:51;;;;;;;;;;;0.30;99.90;;;;;;5093799;28;20312;-41
2022/12/10 11:50:26;;;;;;;;;;;0.30;99.90;;;;;;5094127;28;19916;-41
2022/12/10 11:52:58;;;;;;;;;;;0.30;99.90;;;;;;5092946;28;19912;-42
2022/12/10 11:55:33;;;;;;;;;;;0.30;99.90;;;;;;5093795;28;19915;-39
2022/12/10 11:58:04;;;;;;;;;;;0.40;99.90;;;;;;5093624;28;19908;-41
2022/12/10 12:00:39;;;;;;;;;;;0.30;99.90;;;;;;5092739;28;19966;-39
2022/12/10 12:03:14;;;;;;;;;;;0.40;99.90;;;;;;5093641;28;19908;-40
2022/12/10 12:05:50;;;;;;;;;;;0.30;99.90;;;;;;5092736;28;20094;-40
2022/12/10 12:08:17;;;;;;;;;;;0.30;99.90;;;;;;5093544;28;19916;-39
2022/12/10 12:10:45;;;;;;;;;;;0.30;99.90;;;;;;5094043;28;19927;-40
2022/12/10 12:13:13;;;;;;;;;;;0.30;99.90;;;;;;5092538;28;19916;-41
2022/12/10 12:15:44;;;;;;;;;;;0.30;99.90;;;;;;5093085;28;19908;-40
2022/12/10 12:18:10;;;;;;;;;;;0.20;99.90;;;;;;5107205;28;19912;-42
2022/12/10 12:20:42;;;;;;;;;;;0.20;99.90;;;;;;5101673;28;19908;-39
2022/12/10 12:23:26;;;;;;;;;;;0.20;99.90;;;;;;5110451;28;20305;-39
2022/12/10 12:25:55;;;;;;;;;;;0.20;99.90;;;;;;5109513;28;20002;-43
2022/12/10 12:28:24;;;;;;;;;;;0.10;99.90;;;;;;5108766;28;19916;-40
2022/12/10 12:30:57;;;;;;;;;;;0.20;99.90;;;;;;5106769;28;19985;-40
2022/12/10 12:33:32;;;;;;;;;;;0.20;99.90;;;;;;5094253;28;19919;-40
2022/12/10 12:35:59;;;;;;;;;;;0.20;99.90;;;;;;5093028;28;19912;-39
2022/12/10 12:38:48;;;;;;;;;;;0.20;99.90;;;;;;5101934;28;19911;-40
2022/12/10 12:41:13;;;;;;;;;;;0.20;99.90;;;;;;5092480;28;20130;-39
2022/12/10 12:43:44;;;;;;;;;;;0.30;99.90;;;;;;5106233;27;19911;-38
2022/12/10 12:46:13;;;;;;;;;;;0.30;99.90;;;;;;5133742;27;19911;-39
2022/12/10 12:48:46;;;;;;;;;;;0.30;99.90;;;;;;5132649;27;19953;-39
2022/12/10 12:51:18;;;;;;;;;;;0.30;99.90;;;;;;5109511;27;19916;-40
2022/12/10 12:53:44;;;;;;;;;;;0.30;99.90;;;;;;5105509;28;20054;-39
2022/12/10 12:56:21;;;;;;;;;;;0.30;99.90;;;;;;5103518;28;20617;-39
2022/12/10 12:58:52;;;;;;;;;;;0.40;99.90;;;;;;5103861;28;19919;-40
2022/12/10 13:01:20;;;;;;;;;;;0.40;99.90;;;;;;5105206;28;19912;-39
2022/12/10 13:03:46;;;;;;;;;;;0.40;99.90;;;;;;5098116;28;19912;-40
2022/12/10 13:06:17;;;;;;;;;;;0.50;99.90;;;;;;5097117;28;20049;-39
2022/12/10 13:08:47;;;;;;;;;;;0.50;99.90;;;;;;5109120;27;19908;-39
2022/12/10 13:11:18;;;;;;;;;;;0.50;99.90;;;;;;5126321;27;19963;-41
2022/12/10 13:14:01;;;;;;;;;;;0.50;99.90;;;;;;5114198;28;19911;-40
2022/12/10 13:16:45;;;;;;;;;;;0.50;99.90;;;;;;5100179;27;20359;-39
2022/12/10 13:19:16;;;;;;;;;;;0.50;99.90;;;;;;5096782;28;20309;-41
2022/12/10 13:21:51;;;;;;;;;;;0.60;99.90;;;;;;5114091;27;19908;-43
2022/12/10 13:24:20;;;;;;;;;;;0.50;99.90;;;;;;5136881;27;19912;-41
2022/12/10 13:27:03;;;;;;;;;;;0.60;99.90;;;;;;5128171;27;19912;-41
2022/12/10 13:29:29;;;;;;;;;;;0.50;99.90;;;;;;5114240;28;19920;-39
2022/12/10 13:31:56;;;;;;;;;;;0.60;99.90;;;;;;5114260;28;20347;-39
2022/12/10 13:34:23;;;;;;;;;;;0.50;99.90;;;;;;5113420;28;19957;-41
2022/12/10 13:36:48;;;;;;;;;;;0.50;99.90;;;;;;5116300;28;20331;-39
2022/12/10 13:39:26;;;;;;;;;;;0.50;99.90;;;;;;5115786;28;19908;-41
2022/12/10 13:44:54;;;;;;;;;;;0.50;99.90;;;;;;5115974;28;19915;-41
2022/12/10 13:47:41;;;;;;;;;;;0.50;99.90;;;;;;5116569;28;19911;-40
2022/12/10 13:50:18;;;;;;;;;;;0.50;99.90;;;;;;5116394;28;19924;-40
2022/12/10 13:52:43;;;;;;;;;;;0.50;99.90;;;;;;5114787;28;19912;-40
2022/12/10 13:55:29;;;;;;;;;;;0.40;99.90;;;;;;5115467;28;19926;-39
2022/12/10 13:58:13;;;;;;;;;;;0.40;99.90;;;;;;5115562;28;19911;-39
2022/12/10 14:00:58;;;;;;;;;;;0.40;99.90;;;;;;5111685;27;19912;-41
2022/12/10 14:03:32;;;;;;;;;;;0.50;99.90;;;;;;5111039;28;19942;-39
2022/12/10 14:05:58;;;;;;;;;;;0.40;99.90;;;;;;5094913;28;19999;-40
2022/12/10 14:08:26;;;;;;;;;;;0.40;99.90;;;;;;5095645;28;19948;-41
2022/12/10 14:10:53;;;;;;;;;;;0.40;99.90;;;;;;5095299;28;20382;-39
2022/12/10 14:13:20;;;;;;;;;;;0.40;99.90;;;;;;5094405;28;19912;-38
2022/12/10 14:15:54;;;;;;;;;;;0.40;99.90;;;;;;5095546;28;20409;-40
2022/12/10 14:18:20;;;;;;;;;;;0.40;99.90;;;;;;5110733;28;19970;-40
2022/12/10 14:20:46;;;;;;;;;;;0.40;99.90;;;;;;5115066;28;19939;-44
2022/12/10 14:23:40;;;;;;;;;;;0.40;99.90;;;;;;5116003;28;19918;-39
2022/12/10 14:26:11;;;;;;;;;;;0.40;99.90;;;;;;5106756;28;20270;-39
2022/12/10 14:28:38;;;;;;;;;;;0.40;99.90;;;;;;5107013;28;19915;-40
2022/12/10 14:31:06;;;;;;;;;;;0.40;99.90;;;;;;5106806;28;20374;-40
2022/12/10 14:33:31;;;;;;;;;;;0.30;99.90;;;;;;5108414;28;19922;-39
2022/12/10 14:35:58;;;;;;;;;;;0.30;99.90;;;;;;5107543;28;19912;-39
2022/12/10 14:38:28;;;;;;;;;;;0.40;99.90;;;;;;5106198;28;19981;-40